Time;durP1;ratioP1;P1;durP2;ratioP2;P2;SDS_P1;SDS_P2;PMS_P1;PMS_P2;Temp;Humidity;BMP_temperature;BMP_pressure;BME280_temperature;BME280_humidity;BME280_pressure;Samples;Min_cycle;Max_cycle;Signal;HPM_P1;HPM_P2
2022/09/28 00:00:32;;;;;;;1.07;0.63;;;12.10;42.60;;;;;;10507491;28;20723;-72
2022/09/28 00:05:36;;;;;;;0.80;0.60;;;12.10;42.70;;;;;;10507312;28;20228;-72
2022/09/28 00:10:42;;;;;;;0.77;0.67;;;12.10;43.10;;;;;;10511507;28;20232;-72
2022/09/28 00:15:45;;;;;;;0.87;0.70;;;12.10;42.80;;;;;;10505469;28;20228;-72
2022/09/28 00:20:59;;;;;;;0.70;0.70;;;12.10;42.90;;;;;;10508461;28;20224;-71
2022/09/28 00:26:03;;;;;;;1.20;0.87;;;12.10;43.30;;;;;;10509647;28;20675;-71
2022/09/28 00:31:06;;;;;;;1.00;0.90;;;12.00;43.20;;;;;;10502651;28;20223;-72
2022/09/28 00:36:10;;;;;;;1.40;0.90;;;12.00;43.30;;;;;;10510379;28;20269;-71
2022/09/28 00:41:14;;;;;;;0.80;0.80;;;11.90;43.80;;;;;;10504864;28;20224;-72
2022/09/28 00:46:19;;;;;;;0.70;0.70;;;11.80;43.80;;;;;;10503892;28;20235;-71
2022/09/28 00:51:26;;;;;;;1.43;0.90;;;11.80;44.30;;;;;;10507427;28;20901;-71
2022/09/28 00:56:33;;;;;;;0.83;0.80;;;11.80;44.60;;;;;;10510169;28;20232;-71
2022/09/28 01:01:37;;;;;;;0.93;0.87;;;11.90;44.60;;;;;;10499536;28;20825;-71
2022/09/28 01:06:45;;;;;;;0.97;0.80;;;11.90;44.30;;;;;;10502871;28;20788;-71
2022/09/28 01:11:48;;;;;;;0.90;0.90;;;11.90;45.60;;;;;;10504750;28;20235;-71
2022/09/28 01:17:00;;;;;;;1.37;0.90;;;12.00;44.40;;;;;;10505192;28;20227;-71
2022/09/28 01:22:20;;;;;;;1.23;0.80;;;12.00;45.40;;;;;;10507270;28;20230;-72
2022/09/28 01:27:29;;;;;;;0.90;0.90;;;12.10;45.70;;;;;;10503829;28;20272;-71
2022/09/28 01:32:44;;;;;;;0.80;0.80;;;12.10;45.50;;;;;;10497654;28;20830;-72
2022/09/28 01:37:52;;;;;;;1.50;0.90;;;12.20;45.60;;;;;;10509056;28;20255;-74
2022/09/28 01:43:02;;;;;;;1.20;1.10;;;12.30;45.30;;;;;;10514686;28;20224;-74
2022/09/28 01:48:08;;;;;;;0.90;0.90;;;12.40;45.40;;;;;;10515939;28;20704;-73
2022/09/28 01:53:17;;;;;;;1.10;0.80;;;12.40;44.90;;;;;;10513017;28;20236;-73
2022/09/28 01:58:28;;;;;;;0.90;0.90;;;12.50;45.00;;;;;;10512892;28;20695;-74
2022/09/28 02:03:36;;;;;;;1.67;0.90;;;12.50;45.20;;;;;;10511060;28;20589;-74
2022/09/28 02:08:45;;;;;;;1.30;1.20;;;12.60;45.00;;;;;;10512118;28;20311;-74
2022/09/28 02:13:53;;;;;;;1.00;1.00;;;12.70;44.90;;;;;;10512257;28;20270;-74
2022/09/28 02:18:57;;;;;;;1.03;0.90;;;12.70;44.90;;;;;;10512298;28;20224;-74
2022/09/28 02:24:04;;;;;;;1.00;1.00;;;12.80;44.50;;;;;;10513083;28;20225;-74
2022/09/28 02:29:08;;;;;;;1.57;1.33;;;12.80;45.10;;;;;;10507523;28;20264;-74
2022/09/28 02:34:12;;;;;;;1.30;1.20;;;12.80;44.80;;;;;;10512969;28;20276;-73
2022/09/28 02:39:16;;;;;;;1.13;1.10;;;12.90;44.60;;;;;;10512074;28;20294;-73
2022/09/28 02:44:38;;;;;;;1.03;1.00;;;12.90;44.60;;;;;;10511831;28;20224;-74
2022/09/28 02:49:46;;;;;;;1.40;1.30;;;13.00;45.30;;;;;;10508097;28;20276;-74
2022/09/28 02:55:17;;;;;;;1.23;1.17;;;13.00;44.80;;;;;;10508594;28;20227;-74
2022/09/28 03:00:23;;;;;;;1.00;1.00;;;13.00;45.00;;;;;;10511362;28;20231;-74
2022/09/28 03:05:37;;;;;;;2.43;1.03;;;13.00;44.40;;;;;;10510735;28;20714;-74
2022/09/28 03:10:46;;;;;;;1.30;1.20;;;13.10;44.50;;;;;;10508376;28;20231;-74
2022/09/28 03:15:51;;;;;;;1.30;1.20;;;13.00;44.20;;;;;;10501603;28;20716;-74
2022/09/28 03:20:54;;;;;;;1.10;0.97;;;13.10;44.00;;;;;;10509705;28;20686;-74
2022/09/28 03:25:57;;;;;;;1.17;0.97;;;13.00;43.60;;;;;;10512774;28;20796;-74
2022/09/28 03:31:01;;;;;;;1.13;1.07;;;13.00;43.50;;;;;;10513044;28;20731;-74
2022/09/28 03:36:07;;;;;;;1.37;1.10;;;13.00;43.70;;;;;;10508191;28;20259;-73
2022/09/28 03:41:10;;;;;;;2.10;1.00;;;13.00;43.60;;;;;;10506824;28;20276;-73
2022/09/28 03:46:15;;;;;;;0.80;0.80;;;12.90;43.50;;;;;;10509621;28;20260;-73
2022/09/28 03:51:18;;;;;;;1.57;0.90;;;12.80;44.00;;;;;;10514115;28;20232;-73
2022/09/28 03:56:21;;;;;;;1.00;0.90;;;12.70;43.80;;;;;;10509785;28;20274;-73
2022/09/28 04:01:26;;;;;;;1.53;0.90;;;12.70;44.10;;;;;;10508539;28;20228;-73
2022/09/28 04:06:29;;;;;;;2.93;1.00;;;12.60;44.50;;;;;;10507396;28;20329;-73
2022/09/28 04:11:32;;;;;;;1.60;1.00;;;12.50;44.20;;;;;;10505528;28;20771;-72
2022/09/28 04:16:57;;;;;;;1.10;1.00;;;12.50;44.40;;;;;;10503569;28;20369;-75
2022/09/28 04:22:01;;;;;;;0.80;0.80;;;12.40;44.70;;;;;;10511625;28;20227;-73
2022/09/28 04:32:26;;;;;;;1.00;0.90;;;12.40;44.60;;;;;;10508399;28;20224;-73
2022/09/28 04:37:30;;;;;;;1.03;0.80;;;12.40;44.80;;;;;;10505877;28;20220;-73
2022/09/28 04:42:33;;;;;;;1.27;1.07;;;12.40;44.80;;;;;;10502568;28;20566;-74
2022/09/28 04:47:37;;;;;;;1.07;0.97;;;12.40;44.70;;;;;;10505834;28;20220;-73
2022/09/28 04:52:40;;;;;;;1.03;1.00;;;12.30;44.90;;;;;;10508454;28;20691;-72
2022/09/28 04:57:44;;;;;;;0.80;0.80;;;12.30;44.70;;;;;;10504520;28;20224;-71
2022/09/28 05:02:48;;;;;;;1.20;1.10;;;12.30;44.70;;;;;;10506719;28;20224;-71
2022/09/28 05:07:51;;;;;;;2.20;1.30;;;12.30;45.10;;;;;;10504267;28;20268;-70
2022/09/28 05:12:54;;;;;;;1.57;1.20;;;12.30;44.80;;;;;;10506505;28;20239;-71
2022/09/28 05:17:59;;;;;;;1.90;1.20;;;12.30;44.90;;;;;;10508531;28;20235;-71
2022/09/28 05:23:02;;;;;;;2.63;1.20;;;12.20;45.30;;;;;;10506498;28;20227;-71
2022/09/28 05:28:05;;;;;;;1.83;1.20;;;12.20;45.50;;;;;;10500174;28;20278;-71
2022/09/28 05:33:10;;;;;;;1.83;1.00;;;12.20;45.70;;;;;;10498430;28;20224;-70
2022/09/28 05:38:13;;;;;;;1.37;1.20;;;12.30;46.00;;;;;;10500634;28;20289;-73
2022/09/28 05:43:16;;;;;;;1.80;1.00;;;12.30;45.60;;;;;;10505654;28;20231;-74
2022/09/28 05:48:21;;;;;;;0.97;0.90;;;12.30;45.80;;;;;;10506125;28;20627;-73
2022/09/28 05:53:24;;;;;;;1.37;1.10;;;12.30;46.00;;;;;;10502993;28;20234;-71
2022/09/28 05:58:28;;;;;;;2.03;1.50;;;12.40;45.80;;;;;;10502870;28;20231;-71
2022/09/28 06:03:32;;;;;;;1.60;1.33;;;12.40;45.80;;;;;;10501002;28;20223;-70
2022/09/28 06:08:35;;;;;;;1.00;1.00;;;12.40;46.00;;;;;;10502924;28;20224;-71
2022/09/28 06:13:39;;;;;;;0.83;0.83;;;12.50;45.90;;;;;;10500027;28;20235;-70
2022/09/28 06:18:43;;;;;;;3.77;1.37;;;12.50;46.00;;;;;;10504739;28;20227;-71
2022/09/28 06:23:46;;;;;;;1.37;0.90;;;12.50;46.20;;;;;;10501074;28;20227;-69
2022/09/28 06:28:51;;;;;;;2.03;1.00;;;12.60;45.90;;;;;;10506574;28;20298;-70
2022/09/28 06:33:56;;;;;;;1.10;1.00;;;12.60;45.90;;;;;;10504422;28;20272;-71
2022/09/28 06:38:59;;;;;;;1.03;0.90;;;12.60;46.40;;;;;;10499276;28;20238;-70
2022/09/28 06:44:03;;;;;;;1.00;1.00;;;12.60;46.30;;;;;;10506244;22;20844;-78
2022/09/28 06:49:10;;;;;;;1.47;1.00;;;12.60;46.40;;;;;;10482571;28;20286;-79
2022/09/28 06:54:13;;;;;;;1.43;0.90;;;12.60;46.80;;;;;;10485147;28;20224;-78
2022/09/28 06:59:17;;;;;;;0.83;0.70;;;12.60;46.50;;;;;;10484823;28;20783;-78
2022/09/28 07:04:21;;;;;;;0.70;0.70;;;12.60;46.60;;;;;;10482611;28;20220;-79
2022/09/28 07:09:24;;;;;;;0.93;0.80;;;12.60;47.10;;;;;;10491832;28;20242;-79
2022/09/28 07:14:36;;;;;;;1.57;0.80;;;12.70;46.80;;;;;;10486557;28;20315;-76
2022/09/28 07:19:52;;;;;;;0.80;0.80;;;12.70;47.00;;;;;;10461126;28;20225;-75
2022/09/28 07:24:56;;;;;;;0.83;0.83;;;12.70;47.40;;;;;;10474332;28;20224;-76
2022/09/28 07:29:59;;;;;;;0.97;0.83;;;12.70;47.20;;;;;;10470332;28;20235;-76
2022/09/28 07:35:06;;;;;;;1.40;1.30;;;12.80;47.30;;;;;;10473035;28;20773;-75
2022/09/28 07:45:35;;;;;;;1.50;1.40;;;12.80;47.40;;;;;;10477727;28;20224;-75
2022/09/28 07:50:40;;;;;;;1.33;1.23;;;12.90;47.40;;;;;;10480805;28;20215;-76
2022/09/28 07:55:43;;;;;;;1.10;0.90;;;12.90;47.70;;;;;;10473316;28;20723;-75
2022/09/28 08:00:47;;;;;;;0.60;0.60;;;12.90;47.60;;;;;;10467905;28;20220;-77
2022/09/28 08:05:52;;;;;;;1.30;0.50;;;13.00;47.20;;;;;;10469108;28;20764;-76
2022/09/28 08:10:55;;;;;;;1.30;0.50;;;13.00;47.30;;;;;;10474884;28;20252;-76
2022/09/28 08:16:07;;;;;;;0.50;0.50;;;13.00;46.70;;;;;;10464957;28;20296;-75
2022/09/28 08:26:32;;;;;;;0.97;0.50;;;13.10;46.60;;;;;;10463287;28;20236;-76
2022/09/28 08:31:35;;;;;;;0.60;0.60;;;13.10;45.80;;;;;;10463403;28;20738;-77
2022/09/28 08:36:40;;;;;;;1.70;0.60;;;13.10;46.00;;;;;;10465800;28;20956;-76
2022/09/28 08:41:49;;;;;;;0.50;0.50;;;13.10;46.40;;;;;;10464270;28;20228;-77
2022/09/28 08:46:58;;;;;;;0.77;0.77;;;13.10;46.20;;;;;;10460297;28;21023;-76
2022/09/28 08:52:09;;;;;;;0.57;0.57;;;13.20;46.50;;;;;;10473773;28;20216;-76
2022/09/28 08:57:16;;;;;;;0.63;0.60;;;13.20;46.40;;;;;;10467561;28;20229;-76
2022/09/28 09:02:24;;;;;;;0.60;0.60;;;13.20;46.20;;;;;;10468189;28;20271;-75
2022/09/28 09:07:57;;;;;;;1.73;1.20;;;13.20;45.90;;;;;;10463271;28;20794;-76
2022/09/28 09:13:11;;;;;;;1.47;0.97;;;13.20;46.50;;;;;;10460978;28;20229;-76
2022/09/28 09:18:27;;;;;;;1.50;1.40;;;13.20;46.50;;;;;;10465739;28;20255;-76
2022/09/28 09:23:37;;;;;;;2.17;0.90;;;13.20;46.70;;;;;;10472500;28;20628;-76
2022/09/28 09:29:02;;;;;;;0.90;0.70;;;13.20;46.90;;;;;;10465292;28;20306;-74
2022/09/28 09:34:22;;;;;;;0.87;0.87;;;13.20;47.60;;;;;;10461684;28;20228;-74
2022/09/28 09:39:40;;;;;;;0.90;0.83;;;13.20;47.90;;;;;;10460306;28;20235;-74
2022/09/28 09:45:04;;;;;;;2.50;0.90;;;13.30;47.10;;;;;;10470952;28;20220;-74
2022/09/28 09:50:15;;;;;;;1.53;0.90;;;13.30;47.10;;;;;;10451007;28;20235;-74
2022/09/28 09:55:25;;;;;;;1.37;0.80;;;13.40;46.90;;;;;;10457084;28;20274;-74
2022/09/28 10:00:33;;;;;;;0.90;0.90;;;13.50;46.80;;;;;;10463631;28;20225;-73
2022/09/28 10:05:37;;;;;;;1.17;0.77;;;13.60;47.20;;;;;;10465700;28;20216;-74
2022/09/28 10:10:50;;;;;;;0.80;0.70;;;13.70;47.20;;;;;;10464647;28;20231;-74
2022/09/28 10:15:54;;;;;;;1.97;0.90;;;13.80;47.00;;;;;;10466727;28;20227;-74
2022/09/28 10:20:57;;;;;;;0.77;0.77;;;13.80;46.70;;;;;;10471408;28;20232;-74
2022/09/28 10:26:05;;;;;;;1.57;0.70;;;13.90;47.00;;;;;;10466787;28;20231;-74
2022/09/28 10:31:34;;;;;;;0.90;0.90;;;13.90;47.40;;;;;;10465259;28;20414;-73
2022/09/28 10:36:49;;;;;;;1.10;0.90;;;14.00;47.20;;;;;;10469963;28;20359;-74
2022/09/28 10:41:54;;;;;;;1.20;1.00;;;14.10;47.10;;;;;;10464011;28;20230;-73
2022/09/28 10:47:01;;;;;;;2.23;1.60;;;14.20;47.00;;;;;;10463349;28;20274;-73
2022/09/28 10:52:07;;;;;;;1.37;1.00;;;14.20;47.00;;;;;;10471437;28;20221;-74
2022/09/28 10:57:28;;;;;;;2.03;1.13;;;14.20;46.40;;;;;;10478867;28;20225;-75
2022/09/28 11:02:33;;;;;;;1.93;1.07;;;14.20;47.20;;;;;;10466383;28;20244;-75
2022/09/28 11:07:45;;;;;;;1.07;1.00;;;14.20;46.80;;;;;;10471287;28;20283;-75
2022/09/28 11:12:51;;;;;;;2.23;1.20;;;14.30;47.10;;;;;;10476188;28;20251;-75
2022/09/28 11:17:55;;;;;;;1.03;0.90;;;14.40;47.00;;;;;;10472019;28;20244;-75
2022/09/28 11:23:00;;;;;;;2.13;1.00;;;14.40;46.40;;;;;;10470879;28;20287;-75
2022/09/28 11:28:05;;;;;;;3.07;1.30;;;14.40;46.20;;;;;;10469559;28;20224;-75
2022/09/28 11:33:13;;;;;;;1.87;1.67;;;14.40;46.80;;;;;;10469612;28;20363;-74
2022/09/28 11:38:32;;;;;;;1.97;1.70;;;14.40;46.30;;;;;;10474993;28;20591;-75
2022/09/28 11:43:54;;;;;;;2.70;2.40;;;14.40;46.20;;;;;;10472472;28;20680;-75
2022/09/28 11:49:03;;;;;;;2.80;2.50;;;14.40;46.50;;;;;;10473096;28;20237;-76
2022/09/28 11:54:14;;;;;;;1.50;1.20;;;14.30;46.50;;;;;;10486029;28;20229;-75
2022/09/28 11:59:25;;;;;;;1.57;1.30;;;14.40;46.60;;;;;;10491128;28;20235;-76
2022/09/28 12:04:35;;;;;;;1.10;0.90;;;14.40;47.10;;;;;;10470759;28;20255;-74
2022/09/28 12:09:45;;;;;;;1.50;1.23;;;14.40;46.10;;;;;;10468540;28;20221;-74
2022/09/28 12:14:56;;;;;;;1.10;1.00;;;14.50;46.50;;;;;;10470621;28;20251;-74
2022/09/28 12:20:05;;;;;;;1.30;1.20;;;14.50;46.30;;;;;;10468933;28;20221;-75
2022/09/28 12:25:14;;;;;;;1.30;1.20;;;14.50;46.20;;;;;;10469196;28;20221;-74
2022/09/28 12:30:20;;;;;;;1.77;1.20;;;14.50;46.20;;;;;;10474308;28;20224;-75
2022/09/28 12:35:35;;;;;;;1.53;1.30;;;14.50;46.00;;;;;;10471073;28;20579;-75
2022/09/28 12:40:50;;;;;;;2.80;1.40;;;14.50;45.80;;;;;;10470248;28;20283;-75
2022/09/28 12:46:21;;;;;;;1.20;1.10;;;14.50;45.80;;;;;;10464944;28;20221;-75
2022/09/28 12:51:42;;;;;;;1.10;1.00;;;14.50;45.30;;;;;;10457834;28;20227;-75
2022/09/28 12:56:55;;;;;;;1.37;1.10;;;14.50;45.80;;;;;;10467718;28;20224;-73
2022/09/28 13:02:28;;;;;;;1.27;1.13;;;14.60;45.90;;;;;;10464842;28;20224;-74
2022/09/28 13:07:43;;;;;;;2.27;0.90;;;14.60;45.90;;;;;;10465383;28;20244;-74
2022/09/28 13:12:58;;;;;;;1.77;1.67;;;14.60;45.20;;;;;;10471444;28;20219;-75
2022/09/28 13:18:15;;;;;;;10.47;9.40;;;14.50;45.40;;;;;;10469421;28;20650;-76
2022/09/28 13:23:22;;;;;;;2.73;2.53;;;14.50;45.50;;;;;;10464456;28;20227;-74
2022/09/28 13:28:27;;;;;;;1.73;1.63;;;14.60;45.70;;;;;;10461959;28;20224;-74
2022/09/28 13:33:35;;;;;;;2.70;1.40;;;14.60;45.70;;;;;;10466222;28;20223;-75
2022/09/28 13:38:49;;;;;;;1.13;1.03;;;14.70;45.10;;;;;;10467153;28;20281;-75
2022/09/28 13:44:30;;;;;;;2.40;1.60;;;14.60;44.10;;;;;;10459836;28;20228;-74
2022/09/28 13:49:45;;;;;;;1.53;1.20;;;14.60;44.80;;;;;;10459585;28;20224;-75
2022/09/28 13:55:03;;;;;;;1.90;1.50;;;14.60;44.80;;;;;;10463702;28;20286;-76
2022/09/28 14:00:17;;;;;;;1.63;1.37;;;14.70;45.00;;;;;;10458656;28;20231;-76
2022/09/28 14:05:46;;;;;;;1.40;1.30;;;14.70;44.70;;;;;;10463093;28;20228;-75
2022/09/28 14:10:50;;;;;;;1.20;1.10;;;14.80;44.20;;;;;;10470615;28;20225;-77
2022/09/28 14:16:14;;;;;;;1.60;1.30;;;14.80;45.20;;;;;;10457130;28;20216;-73
2022/09/28 14:22:03;;;;;;;1.40;1.27;;;14.90;45.20;;;;;;10456237;28;20232;-74
2022/09/28 14:27:32;;;;;;;1.40;1.30;;;14.90;44.30;;;;;;10460964;28;20259;-74
2022/09/28 14:32:37;;;;;;;2.13;1.40;;;15.00;44.30;;;;;;10463151;28;20232;-74
2022/09/28 14:43:23;;;;;;;2.63;1.80;;;15.20;44.50;;;;;;10462738;28;20229;-75
2022/09/28 14:48:43;;;;;;;1.60;1.37;;;15.20;44.50;;;;;;10468361;28;20235;-73
2022/09/28 14:53:50;;;;;;;1.40;1.30;;;15.20;43.80;;;;;;10464455;28;20216;-73
2022/09/28 14:58:57;;;;;;;2.33;1.47;;;15.30;43.90;;;;;;10471584;28;20709;-74
2022/09/28 15:04:04;;;;;;;3.13;1.80;;;15.30;44.10;;;;;;10475144;28;20220;-74
2022/09/28 15:09:30;;;;;;;1.73;1.37;;;15.30;44.20;;;;;;10484279;28;20236;-74
2022/09/28 15:14:41;;;;;;;2.40;1.90;;;15.30;44.60;;;;;;10474326;28;20220;-75
2022/09/28 15:19:51;;;;;;;1.77;1.67;;;15.30;44.50;;;;;;10479398;28;20228;-75
2022/09/28 15:24:58;;;;;;;2.37;2.13;;;15.40;43.90;;;;;;10470331;28;20223;-75
2022/09/28 15:30:25;;;;;;;2.50;2.23;;;15.40;43.90;;;;;;10464690;28;20244;-76
2022/09/28 15:35:28;;;;;;;2.23;2.03;;;15.30;44.00;;;;;;10483262;28;20225;-75
2022/09/28 15:40:37;;;;;;;2.90;2.60;;;15.30;44.20;;;;;;10467757;28;20224;-76
2022/09/28 15:45:42;;;;;;;4.97;3.90;;;15.30;44.20;;;;;;10465235;28;20228;-76
2022/09/28 15:51:05;;;;;;;3.00;2.70;;;15.30;44.40;;;;;;10459140;28;20763;-76
2022/09/28 15:56:10;;;;;;;4.07;2.97;;;15.20;44.10;;;;;;10462103;28;20229;-76
2022/09/28 16:01:34;;;;;;;2.50;2.30;;;15.20;43.90;;;;;;10463445;28;20256;-76
2022/09/28 16:06:40;;;;;;;2.47;2.00;;;15.20;43.90;;;;;;10459485;28;20255;-76
2022/09/28 16:11:47;;;;;;;2.60;2.40;;;15.10;44.10;;;;;;10474359;28;20599;-76
2022/09/28 16:16:52;;;;;;;2.67;2.23;;;15.10;43.90;;;;;;10469852;28;20259;-76
2022/09/28 16:21:56;;;;;;;3.17;2.87;;;15.00;44.00;;;;;;10462519;28;20224;-77
2022/09/28 16:27:04;;;;;;;4.30;3.90;;;14.90;44.00;;;;;;10474749;28;20225;-76
2022/09/28 16:32:36;;;;;;;3.10;2.80;;;14.90;44.30;;;;;;10473399;28;20590;-76
2022/09/28 16:37:41;;;;;;;4.83;3.50;;;14.70;44.80;;;;;;10476239;28;20448;-76
2022/09/28 16:42:46;;;;;;;2.83;2.47;;;14.60;44.00;;;;;;10470643;28;20238;-76
2022/09/28 16:47:52;;;;;;;2.90;2.30;;;14.60;44.00;;;;;;10478758;28;20225;-74
2022/09/28 16:58:23;;;;;;;3.97;2.97;;;14.50;43.90;;;;;;10477448;28;20228;-74
2022/09/28 17:03:28;;;;;;;3.70;2.70;;;14.50;43.90;;;;;;10464253;28;20221;-74
2022/09/28 17:08:31;;;;;;;2.80;2.60;;;14.40;43.80;;;;;;10468179;28;20318;-74
2022/09/28 17:13:36;;;;;;;2.80;2.60;;;14.40;43.80;;;;;;10469191;28;20644;-74
2022/09/28 17:18:39;;;;;;;3.10;2.87;;;14.30;43.70;;;;;;10462779;28;20231;-74
2022/09/28 17:23:42;;;;;;;3.27;2.90;;;14.20;43.60;;;;;;10467798;28;20289;-74
2022/09/28 17:28:47;;;;;;;2.77;2.50;;;14.10;43.60;;;;;;10455218;28;20704;-74
2022/09/28 17:33:50;;;;;;;2.60;2.40;;;14.10;43.70;;;;;;10459245;28;20216;-74
2022/09/28 17:38:54;;;;;;;4.07;2.47;;;14.10;43.90;;;;;;10463749;28;20220;-74
2022/09/28 17:43:59;;;;;;;2.83;2.53;;;14.00;43.90;;;;;;10464118;28;20221;-74
2022/09/28 17:49:04;;;;;;;4.07;2.63;;;14.10;44.20;;;;;;10458942;28;20222;-74
2022/09/28 17:54:08;;;;;;;2.43;2.13;;;14.10;44.10;;;;;;10459701;28;20228;-74
2022/09/28 17:59:16;;;;;;;3.77;2.27;;;14.10;44.10;;;;;;10466827;28;20258;-74
2022/09/28 18:04:19;;;;;;;2.90;2.30;;;14.10;44.00;;;;;;10468864;28;20223;-75
2022/09/28 18:09:42;;;;;;;3.37;2.47;;;14.10;43.80;;;;;;10483966;28;20779;-75
2022/09/28 18:14:47;;;;;;;2.23;1.97;;;14.20;44.00;;;;;;10471276;28;20980;-74
2022/09/28 18:19:50;;;;;;;2.80;2.60;;;14.20;43.90;;;;;;10483608;28;20224;-74
2022/09/28 18:24:53;;;;;;;4.17;3.10;;;14.20;43.80;;;;;;10483713;28;20224;-73
2022/09/28 18:29:58;;;;;;;4.60;3.73;;;14.20;43.60;;;;;;10478255;28;20250;-75
2022/09/28 18:35:01;;;;;;;3.67;3.37;;;14.20;43.60;;;;;;10470371;28;20744;-75
2022/09/28 18:40:04;;;;;;;4.07;3.67;;;14.20;43.60;;;;;;10472481;28;20274;-74
2022/09/28 18:45:10;;;;;;;5.17;4.23;;;14.20;43.60;;;;;;10475874;28;20224;-75
2022/09/28 18:50:14;;;;;;;3.87;2.90;;;14.10;43.60;;;;;;10474337;28;20282;-75
2022/09/28 18:55:17;;;;;;;2.67;2.47;;;14.00;43.40;;;;;;10470760;28;20228;-74
2022/09/28 19:00:22;;;;;;;3.50;2.40;;;13.90;43.40;;;;;;10475949;28;20220;-73
2022/09/28 19:05:26;;;;;;;4.60;3.20;;;13.80;43.40;;;;;;10481216;28;20232;-74
2022/09/28 19:10:30;;;;;;;3.57;3.17;;;13.70;43.30;;;;;;10468917;28;20759;-74
2022/09/28 19:15:34;;;;;;;2.60;2.40;;;13.60;43.50;;;;;;10475064;28;20229;-74
2022/09/28 19:20:38;;;;;;;2.83;2.30;;;13.60;43.80;;;;;;10480662;28;20231;-74
2022/09/28 19:25:41;;;;;;;2.33;2.13;;;13.50;43.70;;;;;;10484316;28;20224;-74
2022/09/28 19:30:45;;;;;;;2.70;1.93;;;13.50;43.80;;;;;;10479496;28;20228;-74
2022/09/28 19:35:56;;;;;;;2.50;1.97;;;13.60;43.90;;;;;;10481437;28;20216;-74
2022/09/28 19:40:59;;;;;;;1.83;1.73;;;13.60;44.00;;;;;;10483324;28;20231;-74
2022/09/28 19:46:07;;;;;;;4.37;2.50;;;13.60;43.70;;;;;;10469428;28;20228;-74
2022/09/28 19:51:10;;;;;;;3.60;2.10;;;13.60;43.10;;;;;;10466287;28;20770;-74
2022/09/28 19:56:14;;;;;;;2.77;2.20;;;13.50;43.20;;;;;;10470809;28;20569;-76
2022/09/28 20:01:19;;;;;;;2.30;1.80;;;13.50;43.30;;;;;;10484310;28;20922;-76
2022/09/28 20:06:23;;;;;;;2.80;2.20;;;13.40;43.00;;;;;;10488405;28;20239;-76
2022/09/28 20:11:28;;;;;;;2.37;1.87;;;13.40;43.30;;;;;;10485514;28;20236;-76
2022/09/28 20:16:36;;;;;;;2.30;1.90;;;13.30;43.40;;;;;;10486767;28;20769;-76
2022/09/28 20:21:39;;;;;;;2.57;1.70;;;13.30;43.20;;;;;;10492633;28;20269;-76
2022/09/28 20:26:44;;;;;;;1.80;1.70;;;13.30;43.50;;;;;;10484877;28;20624;-76
2022/09/28 20:31:50;;;;;;;2.33;2.10;;;13.20;43.50;;;;;;10491878;28;20347;-76
2022/09/28 20:36:53;;;;;;;4.30;2.30;;;13.20;43.40;;;;;;10480653;28;20274;-76
2022/09/28 20:41:56;;;;;;;4.53;2.30;;;13.20;43.60;;;;;;10481222;28;20224;-76
2022/09/28 20:47:01;;;;;;;4.57;2.60;;;13.20;43.60;;;;;;10486610;28;20220;-76
2022/09/28 20:52:04;;;;;;;2.70;2.40;;;13.10;43.40;;;;;;10481346;28;20220;-76
2022/09/28 20:57:16;;;;;;;3.03;2.70;;;13.00;43.40;;;;;;10481322;28;20232;-75
2022/09/28 21:02:21;;;;;;;3.10;2.30;;;13.00;43.60;;;;;;10470824;28;20232;-76
2022/09/28 21:07:24;;;;;;;2.43;2.23;;;13.00;43.60;;;;;;10465413;28;20693;-76
2022/09/28 21:12:27;;;;;;;2.57;2.30;;;13.00;43.70;;;;;;10466047;28;20224;-76
2022/09/28 21:17:32;;;;;;;2.23;2.03;;;13.00;43.60;;;;;;10468819;28;20255;-76
2022/09/28 21:22:35;;;;;;;3.20;2.33;;;13.00;43.70;;;;;;10471342;28;20228;-76
2022/09/28 21:27:38;;;;;;;2.27;2.07;;;12.90;43.80;;;;;;10467233;28;20228;-75
2022/09/28 21:32:42;;;;;;;2.77;2.03;;;13.00;44.00;;;;;;10471769;28;20225;-75
2022/09/28 21:37:46;;;;;;;2.13;2.00;;;13.00;44.00;;;;;;10462050;28;20233;-76
2022/09/28 21:42:49;;;;;;;2.63;2.33;;;13.10;44.00;;;;;;10467862;28;20232;-76
2022/09/28 21:47:54;;;;;;;3.37;2.17;;;13.20;44.00;;;;;;10468374;28;20228;-76
2022/09/28 21:52:57;;;;;;;2.20;2.10;;;13.20;44.00;;;;;;10467474;28;20231;-76
2022/09/28 21:58:00;;;;;;;2.47;2.27;;;13.20;43.90;;;;;;10474778;28;20223;-76
2022/09/28 22:03:05;;;;;;;3.13;2.67;;;13.30;43.90;;;;;;10477004;28;20294;-75
2022/09/28 22:08:08;;;;;;;2.53;2.33;;;13.30;43.90;;;;;;10478272;28;20231;-76
2022/09/28 22:13:12;;;;;;;2.43;2.17;;;13.30;43.80;;;;;;10479882;28;20246;-75
2022/09/28 22:18:16;;;;;;;3.10;2.80;;;13.30;43.70;;;;;;10477708;28;20685;-76
2022/09/28 22:23:21;;;;;;;2.80;2.50;;;13.30;43.50;;;;;;10475241;28;20287;-76
2022/09/28 22:28:24;;;;;;;2.80;2.60;;;13.30;43.30;;;;;;10481234;28;20235;-76
2022/09/28 22:33:29;;;;;;;3.93;2.30;;;13.20;43.20;;;;;;10474684;28;20260;-76
2022/09/28 22:38:32;;;;;;;2.33;2.13;;;13.10;43.40;;;;;;10476703;28;20224;-76
2022/09/28 22:43:35;;;;;;;2.87;2.13;;;13.00;43.40;;;;;;10477711;28;20224;-75
2022/09/28 22:48:41;;;;;;;3.33;2.40;;;12.90;43.50;;;;;;10473518;28;20251;-76
2022/09/28 22:53:44;;;;;;;2.20;2.10;;;12.90;43.80;;;;;;10473779;28;20236;-76
2022/09/28 22:58:47;;;;;;;2.37;2.17;;;12.90;43.90;;;;;;10474271;28;20227;-76
2022/09/28 23:03:54;;;;;;;1.97;1.87;;;12.90;44.10;;;;;;10476191;28;20221;-76
2022/09/28 23:08:57;;;;;;;2.57;2.37;;;12.90;44.20;;;;;;10468044;28;20228;-76
2022/09/28 23:14:00;;;;;;;2.87;2.20;;;12.90;44.00;;;;;;10474911;28;20931;-76
2022/09/28 23:19:05;;;;;;;2.27;2.07;;;12.90;43.90;;;;;;10470834;28;20228;-76
2022/09/28 23:24:10;;;;;;;2.70;2.23;;;13.00;44.10;;;;;;10470199;28;20667;-76
2022/09/28 23:29:13;;;;;;;2.53;2.33;;;13.00;44.00;;;;;;10473783;28;20236;-76
2022/09/28 23:34:18;;;;;;;2.43;2.23;;;13.00;43.70;;;;;;10476335;28;20774;-75
2022/09/28 23:39:21;;;;;;;2.30;2.10;;;13.00;43.90;;;;;;10479284;28;20235;-76
2022/09/28 23:44:25;;;;;;;2.23;1.87;;;12.90;43.70;;;;;;10472200;28;20231;-75
2022/09/28 23:49:30;;;;;;;2.10;1.90;;;12.90;43.90;;;;;;10471210;28;20258;-75
2022/09/28 23:54:33;;;;;;;2.13;1.80;;;12.90;44.10;;;;;;10468342;28;20232;-76
2022/09/28 23:59:36;;;;;;;3.40;1.93;;;12.90;44.10;;;;;;10473947;28;20236;-76
